createdAt,value
2018-07-02T00:02:20.817Z,77.30
2018-07-02T00:07:22.413Z,78.40
2018-07-02T00:09:50.727Z,78.70
2018-07-02T00:12:19.504Z,79.40
2018-07-02T00:14:48.407Z,81.00
2018-07-02T00:17:16.564Z,80.80
2018-07-02T00:19:44.412Z,81.20
2018-07-02T00:22:12.791Z,81.30
2018-07-02T00:27:08.630Z,82.70
2018-07-02T00:29:36.482Z,85.50
2018-07-02T00:32:04.287Z,86.70
2018-07-02T00:34:32.065Z,87.20
2018-07-02T00:36:59.814Z,89.00
2018-07-02T00:39:27.680Z,90.40
2018-07-02T00:41:55.455Z,91.00
2018-07-02T00:44:23.345Z,90.60
2018-07-02T00:46:51.091Z,90.50
2018-07-02T00:49:18.935Z,90.20
2018-07-02T00:51:46.827Z,90.10
2018-07-02T00:54:14.573Z,90.30
2018-07-02T00:56:42.417Z,90.50
2018-07-02T01:01:38.062Z,90.50
2018-07-02T01:04:06.047Z,90.70
2018-07-02T01:06:33.834Z,90.90
2018-07-02T01:09:01.661Z,91.20
2018-07-02T01:11:29.602Z,91.20
2018-07-02T01:13:57.467Z,91.10
2018-07-02T01:16:25.317Z,91.20
2018-07-02T01:18:53.242Z,91.30
2018-07-02T01:21:21.047Z,91.80
2018-07-02T01:23:48.828Z,92.10
2018-07-02T01:26:17.247Z,92.20
2018-07-02T01:28:45.489Z,92.50
2018-07-02T01:31:13.689Z,92.80
2018-07-02T01:33:41.457Z,92.70
2018-07-02T01:36:09.428Z,92.90
2018-07-02T01:38:37.246Z,93.00
2018-07-02T01:41:05.106Z,93.80
2018-07-02T01:43:33.414Z,94.40
2018-07-02T01:46:01.511Z,94.30
2018-07-02T01:48:29.265Z,94.30
2018-07-02T01:50:57.092Z,95.00
2018-07-02T01:53:25.159Z,95.80
2018-07-02T01:55:53.150Z,96.80
2018-07-02T01:58:21.044Z,98.20
2018-07-02T02:00:48.833Z,99.00
2018-07-02T02:03:16.655Z,99.10
2018-07-02T02:08:12.149Z,99.90
2018-07-02T02:10:39.946Z,99.90
2018-07-02T02:15:35.516Z,99.90
2018-07-02T02:18:03.310Z,99.90
2018-07-02T02:20:31.097Z,99.90
2018-07-02T02:25:26.596Z,99.90
2018-07-02T02:27:54.370Z,99.90
2018-07-02T02:30:22.149Z,99.90
2018-07-02T02:32:50.019Z,99.90
2018-07-02T02:37:45.577Z,99.90
2018-07-02T02:40:13.390Z,99.90
2018-07-02T02:42:41.171Z,99.90
2018-07-02T02:47:36.666Z,99.90
2018-07-02T02:50:04.479Z,99.90
2018-07-02T02:54:59.967Z,99.90
2018-07-02T02:57:27.773Z,99.90
2018-07-02T02:59:55.582Z,99.90
2018-07-02T03:02:23.441Z,99.90
2018-07-02T03:04:51.343Z,99.90
2018-07-02T03:07:19.152Z,99.90
2018-07-02T03:09:46.973Z,99.90
2018-07-02T03:12:14.760Z,99.90
2018-07-02T03:14:42.621Z,99.90
2018-07-02T03:22:06.673Z,99.90
2018-07-02T03:24:34.471Z,99.90
2018-07-02T03:27:02.265Z,99.90
2018-07-02T03:29:30.214Z,99.90
2018-07-02T03:31:58.274Z,99.90
2018-07-02T03:34:26.347Z,99.90
2018-07-02T03:36:54.154Z,99.90
2018-07-02T03:39:21.928Z,99.90
2018-07-02T03:41:49.842Z,99.90
2018-07-02T03:44:17.591Z,99.90
2018-07-02T03:46:45.533Z,99.90
2018-07-02T03:49:13.270Z,99.90
2018-07-02T03:51:41.066Z,99.90
2018-07-02T03:54:08.817Z,99.90
2018-07-02T03:56:36.595Z,99.90
2018-07-02T03:59:04.373Z,99.90
2018-07-02T04:01:32.275Z,99.90
2018-07-02T04:04:00.096Z,99.90
2018-07-02T04:06:28.005Z,99.90
2018-07-02T04:08:55.788Z,99.90
2018-07-02T04:13:51.263Z,99.90
2018-07-02T04:16:19.127Z,99.90
2018-07-02T04:18:46.989Z,99.90
2018-07-02T04:21:14.758Z,99.90
2018-07-02T04:23:42.570Z,99.90
2018-07-02T04:26:10.343Z,99.90
2018-07-02T04:31:05.814Z,99.90
2018-07-02T04:33:33.622Z,99.90
2018-07-02T04:40:56.971Z,99.90
2018-07-02T04:43:24.826Z,99.90
2018-07-02T04:45:52.606Z,99.90
2018-07-02T04:48:20.489Z,99.90
2018-07-02T04:50:48.561Z,99.90
2018-07-02T04:53:16.410Z,99.90
2018-07-02T04:55:44.272Z,99.90
2018-07-02T04:58:12.213Z,99.90
2018-07-02T05:00:42.126Z,99.90
2018-07-02T05:03:09.913Z,99.90
2018-07-02T05:05:37.707Z,99.90
2018-07-02T05:08:05.514Z,99.90
2018-07-02T05:10:33.293Z,99.90
2018-07-02T05:13:01.073Z,99.90
2018-07-02T05:15:28.785Z,99.90
2018-07-02T05:17:56.603Z,99.90
2018-07-02T05:20:24.373Z,99.90
2018-07-02T05:22:52.372Z,99.90
2018-07-02T05:25:20.043Z,99.90
2018-07-02T05:27:47.865Z,99.90
2018-07-02T05:30:15.627Z,99.90
2018-07-02T05:32:43.593Z,99.90
2018-07-02T05:35:11.365Z,99.90
2018-07-02T05:37:39.137Z,99.90
2018-07-02T05:40:07.035Z,99.90
2018-07-02T05:42:34.799Z,99.90
2018-07-02T05:45:02.560Z,99.90
2018-07-02T05:47:30.422Z,99.90
2018-07-02T05:49:58.300Z,99.90
2018-07-02T05:52:26.113Z,99.90
2018-07-02T05:54:53.989Z,99.90
2018-07-02T05:57:21.798Z,99.90
2018-07-02T06:02:17.292Z,99.90
2018-07-02T06:04:45.223Z,99.90
2018-07-02T06:07:12.960Z,99.90
2018-07-02T06:09:40.771Z,99.90
2018-07-02T06:12:08.534Z,99.90
2018-07-02T06:14:37.624Z,99.90
2018-07-02T06:17:05.352Z,99.90
2018-07-02T06:19:33.138Z,99.90
2018-07-02T06:22:00.935Z,99.90
2018-07-02T06:24:28.765Z,99.90
2018-07-02T06:26:56.547Z,99.90
2018-07-02T06:31:52.010Z,99.90
2018-07-02T06:34:19.850Z,98.60
2018-07-02T06:36:47.618Z,95.70
2018-07-02T06:39:15.411Z,96.80
2018-07-02T06:41:43.186Z,96.00
2018-07-02T06:51:34.292Z,93.80
2018-07-02T06:54:02.046Z,92.30
2018-07-02T06:56:29.849Z,91.70
2018-07-02T07:01:25.377Z,90.60
2018-07-02T07:03:53.137Z,91.00
2018-07-02T07:06:20.953Z,90.00
2018-07-02T07:08:48.756Z,86.60
2018-07-02T07:11:16.766Z,86.70
2018-07-02T07:13:44.570Z,88.90
2018-07-02T07:16:12.314Z,86.90
2018-07-02T07:18:40.166Z,85.70
2018-07-02T07:21:08.022Z,84.00
2018-07-02T07:28:32.228Z,83.40
2018-07-02T07:33:27.838Z,82.30
2018-07-02T07:35:56.156Z,82.90
2018-07-02T07:38:23.940Z,81.90
2018-07-02T07:40:52.142Z,80.70
2018-07-02T07:43:20.089Z,81.70
2018-07-02T07:45:47.822Z,82.70
2018-07-02T07:48:15.641Z,80.50
2018-07-02T07:50:43.853Z,77.80
2018-07-02T07:55:40.824Z,76.70
2018-07-02T08:00:36.261Z,77.10
2018-07-02T08:03:04.021Z,77.50
2018-07-02T08:05:31.803Z,76.10
2018-07-02T08:07:59.567Z,75.90
2018-07-02T08:10:27.470Z,75.90
2018-07-02T08:12:55.274Z,76.20
2018-07-02T08:17:50.786Z,75.70
2018-07-02T08:22:46.293Z,75.70
2018-07-02T08:25:14.085Z,75.50
2018-07-02T08:30:09.696Z,75.80
2018-07-02T08:32:37.422Z,75.00
2018-07-02T08:35:05.239Z,74.10
2018-07-02T08:40:00.762Z,74.40
2018-07-02T08:44:56.189Z,72.60
2018-07-02T08:52:19.387Z,73.80
2018-07-02T08:59:42.703Z,73.80
2018-07-02T09:02:10.535Z,71.10
2018-07-02T09:09:33.949Z,73.10
2018-07-02T09:12:01.742Z,72.00
2018-07-02T09:14:29.544Z,72.70
2018-07-02T09:16:57.274Z,72.40
2018-07-02T09:19:25.114Z,72.50
2018-07-02T09:21:53.278Z,72.40
2018-07-02T09:24:21.065Z,72.90
2018-07-02T09:26:48.785Z,71.10
2018-07-02T09:31:44.307Z,71.30
2018-07-02T09:34:12.012Z,70.90
2018-07-02T09:36:40.343Z,72.40
2018-07-02T09:41:38.621Z,70.80
2018-07-02T09:44:06.453Z,71.00
2018-07-02T09:46:34.285Z,70.40
2018-07-02T09:51:29.907Z,71.40
2018-07-02T09:53:58.374Z,71.00
2018-07-02T09:56:26.172Z,69.50
2018-07-02T09:58:53.907Z,70.50
2018-07-02T10:03:49.379Z,70.90
2018-07-02T10:06:17.720Z,69.40
2018-07-02T10:08:45.423Z,69.30
2018-07-02T10:11:13.213Z,68.40
2018-07-02T10:13:40.945Z,68.00
2018-07-02T10:16:08.692Z,68.90
2018-07-02T10:18:36.471Z,70.70
2018-07-02T10:21:04.275Z,69.60
2018-07-02T10:23:37.332Z,69.20
2018-07-02T10:28:27.756Z,69.70
2018-07-02T10:30:55.738Z,68.60
2018-07-02T10:33:23.358Z,69.70
2018-07-02T10:35:51.158Z,69.20
2018-07-02T10:38:18.893Z,70.30
2018-07-02T10:40:46.654Z,71.30
2018-07-02T10:43:14.362Z,70.70
2018-07-02T10:45:42.147Z,69.20
2018-07-02T10:48:09.941Z,69.50
2018-07-02T10:50:37.716Z,69.10
2018-07-02T10:53:05.475Z,70.40
2018-07-02T10:55:33.300Z,70.30
2018-07-02T10:58:01.056Z,70.10
2018-07-02T11:00:28.852Z,70.00
2018-07-02T11:02:56.675Z,68.10
2018-07-02T11:07:52.210Z,67.40
2018-07-02T11:10:19.966Z,68.60
2018-07-02T11:12:47.726Z,69.00
2018-07-02T11:15:15.495Z,69.20
2018-07-02T11:20:11.121Z,67.20
2018-07-02T11:22:39.193Z,65.90
2018-07-02T11:25:06.983Z,64.50
2018-07-02T11:27:34.781Z,65.30
2018-07-02T11:30:02.783Z,66.20
2018-07-02T11:32:30.645Z,66.60
2018-07-02T11:34:58.387Z,66.40
2018-07-02T11:37:26.186Z,65.90
2018-07-02T11:39:53.906Z,63.30
2018-07-02T11:42:21.687Z,60.60
2018-07-02T11:44:49.436Z,64.90
2018-07-02T11:47:17.248Z,65.80
2018-07-02T11:49:45.029Z,65.20
2018-07-02T11:52:12.826Z,64.40
2018-07-02T11:54:40.601Z,65.40
2018-07-02T11:57:08.384Z,65.60
2018-07-02T11:59:36.161Z,64.40
2018-07-02T12:02:04.036Z,65.60
2018-07-02T12:04:31.905Z,68.10
2018-07-02T12:06:59.701Z,68.70
2018-07-02T12:09:27.463Z,66.80
2018-07-02T12:11:55.197Z,64.60
2018-07-02T12:16:50.719Z,68.30
2018-07-02T12:19:18.531Z,68.70
2018-07-02T12:21:46.345Z,68.10
2018-07-02T12:24:14.062Z,65.30
2018-07-02T12:26:41.887Z,66.90
2018-07-02T12:29:09.632Z,66.60
2018-07-02T12:34:05.219Z,67.20
2018-07-02T12:36:33.036Z,66.20
2018-07-02T12:39:00.835Z,66.70
2018-07-02T12:41:28.562Z,65.20
2018-07-02T12:43:56.341Z,65.40
2018-07-02T12:46:24.098Z,67.30
2018-07-02T12:48:51.940Z,67.00
2018-07-02T12:51:19.710Z,66.90
2018-07-02T12:53:47.491Z,67.50
2018-07-02T12:58:43.060Z,66.10
2018-07-02T13:01:10.808Z,67.10
2018-07-02T13:03:38.605Z,66.00
2018-07-02T13:06:06.382Z,63.90
2018-07-02T13:13:29.801Z,65.00
2018-07-02T13:15:57.566Z,65.50
2018-07-02T13:20:53.047Z,66.40
2018-07-02T13:23:20.834Z,65.90
2018-07-02T13:25:48.612Z,65.20
2018-07-02T13:28:16.514Z,64.50
2018-07-02T13:30:44.273Z,64.40
2018-07-02T13:33:12.047Z,64.80
2018-07-02T13:35:39.821Z,63.30
2018-07-02T13:38:07.616Z,62.50
2018-07-02T13:40:38.036Z,61.50
2018-07-02T13:43:06.065Z,62.60
2018-07-02T13:45:33.808Z,61.60
2018-07-02T13:48:01.623Z,62.00
2018-07-02T13:50:29.370Z,61.60
2018-07-02T13:52:57.172Z,59.70
2018-07-02T13:55:24.975Z,61.50
2018-07-02T13:57:52.746Z,59.40
2018-07-02T14:00:20.609Z,60.30
2018-07-02T14:05:16.038Z,60.60
2018-07-02T14:07:43.818Z,59.00
2018-07-02T14:10:11.577Z,59.80
2018-07-02T14:12:39.354Z,60.40
2018-07-02T14:15:08.069Z,59.90
2018-07-02T14:17:35.850Z,59.50
2018-07-02T14:20:03.709Z,59.90
2018-07-02T14:22:31.467Z,61.10
2018-07-02T14:24:59.321Z,60.00
2018-07-02T14:27:27.120Z,58.80
2018-07-02T14:29:55.139Z,59.70
2018-07-02T14:32:22.910Z,60.30
2018-07-02T14:34:50.714Z,59.20
2018-07-02T14:39:46.221Z,60.00
2018-07-02T14:42:13.982Z,59.30
2018-07-02T14:44:42.030Z,59.70
2018-07-02T14:49:37.488Z,59.10
2018-07-02T14:52:05.284Z,60.40
2018-07-02T14:54:33.072Z,59.10
2018-07-02T14:57:00.804Z,59.20
2018-07-02T15:04:24.256Z,58.60
2018-07-02T15:06:52.145Z,57.50
2018-07-02T15:11:47.710Z,58.50
2018-07-02T15:14:15.502Z,57.70
2018-07-02T15:16:43.214Z,57.00
2018-07-02T15:21:38.690Z,54.70
2018-07-02T15:24:06.563Z,53.50
2018-07-02T15:26:34.541Z,53.30
2018-07-02T15:29:02.513Z,51.70
2018-07-02T15:33:58.054Z,50.20
2018-07-02T15:36:26.098Z,50.20
2018-07-02T15:38:53.873Z,48.40
2018-07-02T15:41:24.206Z,48.20
2018-07-02T15:46:19.735Z,46.20
2018-07-02T15:48:47.502Z,46.40
2018-07-02T15:53:43.024Z,46.40
2018-07-02T15:56:10.766Z,47.90
2018-07-02T15:58:38.686Z,47.00
2018-07-02T16:01:06.378Z,45.80
2018-07-02T16:03:34.121Z,46.30
2018-07-02T16:06:01.891Z,44.80
2018-07-02T16:08:29.710Z,44.30
2018-07-02T16:10:57.548Z,44.10
2018-07-02T16:13:25.255Z,42.90
2018-07-02T16:18:20.872Z,41.40
2018-07-02T16:20:48.677Z,42.30
2018-07-02T16:23:16.998Z,42.70
2018-07-02T16:25:44.790Z,42.50
2018-07-02T16:33:08.044Z,43.50
2018-07-02T16:35:35.906Z,44.10
2018-07-02T16:38:03.923Z,43.70
2018-07-02T16:40:31.749Z,43.30
2018-07-02T16:42:59.521Z,43.10
2018-07-02T16:45:27.354Z,42.60
2018-07-02T16:47:55.330Z,42.20
2018-07-02T16:50:23.129Z,42.30
2018-07-02T16:52:50.862Z,42.80
2018-07-02T16:55:18.648Z,43.80
2018-07-02T16:57:46.559Z,42.00
2018-07-02T17:00:14.763Z,42.00
2018-07-02T17:07:37.944Z,42.40
2018-07-02T17:10:05.819Z,42.00
2018-07-02T17:12:33.566Z,41.40
2018-07-02T17:15:01.346Z,41.80
2018-07-02T17:17:29.153Z,40.80
2018-07-02T17:22:24.620Z,41.20
2018-07-02T17:24:52.469Z,41.70
2018-07-02T17:27:20.248Z,41.20
2018-07-02T17:29:48.034Z,41.80
2018-07-02T17:32:15.782Z,41.50
2018-07-02T17:34:43.598Z,41.00
2018-07-02T17:37:11.337Z,40.70
2018-07-02T17:39:41.588Z,41.80
2018-07-02T17:44:37.049Z,41.50
2018-07-02T17:47:04.981Z,42.40
2018-07-02T17:52:00.445Z,42.20
2018-07-02T17:54:29.698Z,42.30
2018-07-02T17:56:57.463Z,42.20
2018-07-02T17:59:25.182Z,43.30
2018-07-02T18:01:52.990Z,43.10
2018-07-02T18:04:20.793Z,43.00
2018-07-02T18:06:48.563Z,44.00
2018-07-02T18:09:16.278Z,43.80
2018-07-02T18:14:11.701Z,44.00
2018-07-02T18:19:07.173Z,44.10
2018-07-02T18:21:35.138Z,44.50
2018-07-02T18:24:02.959Z,44.30
2018-07-02T18:31:26.028Z,44.80
2018-07-02T18:33:53.789Z,46.60
2018-07-02T18:36:21.571Z,46.50
2018-07-02T18:38:49.400Z,46.30
2018-07-02T18:41:17.149Z,47.20
2018-07-02T18:43:44.929Z,47.20
2018-07-02T18:46:12.721Z,47.10
2018-07-02T18:48:40.470Z,46.80
2018-07-02T18:51:08.251Z,47.50
2018-07-02T18:56:03.826Z,48.30
2018-07-02T18:58:32.364Z,48.30
2018-07-02T19:01:00.540Z,48.10
2018-07-02T19:03:28.366Z,49.20
2018-07-02T19:05:56.166Z,49.70
2018-07-02T19:08:24.309Z,48.80
2018-07-02T19:10:52.334Z,49.70
2018-07-02T19:13:20.069Z,49.20
2018-07-02T19:18:15.598Z,51.00
2018-07-02T19:20:43.425Z,51.70
2018-07-02T19:23:11.250Z,52.30
2018-07-02T19:25:39.010Z,52.10
2018-07-02T19:28:06.862Z,52.50
2018-07-02T19:30:35.834Z,52.00
2018-07-02T19:33:03.786Z,52.90
2018-07-02T19:35:31.593Z,53.70
2018-07-02T19:40:27.107Z,57.00
2018-07-02T19:45:22.588Z,57.90
2018-07-02T19:47:50.404Z,58.20
2018-07-02T19:52:46.235Z,58.50
2018-07-02T19:55:14.065Z,59.50
2018-07-02T19:57:41.815Z,59.70
2018-07-02T20:00:10.134Z,60.10
2018-07-02T20:02:38.038Z,60.90
2018-07-02T20:07:33.626Z,61.90
2018-07-02T20:10:01.407Z,61.80
2018-07-02T20:14:56.882Z,63.10
2018-07-02T20:17:24.661Z,63.50
2018-07-02T20:19:52.451Z,63.30
2018-07-02T20:22:20.222Z,63.30
2018-07-02T20:27:15.855Z,63.40
2018-07-02T20:29:43.600Z,61.60
2018-07-02T20:32:11.488Z,63.90
2018-07-02T20:37:07.023Z,64.10
2018-07-02T20:39:34.833Z,64.20
2018-07-02T20:42:02.594Z,64.20
2018-07-02T20:44:30.457Z,64.80
2018-07-02T20:46:58.239Z,65.30
2018-07-02T20:49:26.171Z,65.90
2018-07-02T20:54:21.786Z,65.40
2018-07-02T20:59:17.314Z,65.40
2018-07-02T21:01:45.212Z,66.60
2018-07-02T21:04:13.349Z,67.20
2018-07-02T21:06:41.279Z,67.00
2018-07-02T21:09:10.103Z,67.60
2018-07-02T21:14:06.293Z,67.80
2018-07-02T21:16:34.515Z,67.70
2018-07-02T21:19:02.482Z,68.10
2018-07-02T21:23:58.222Z,69.00
2018-07-02T21:28:54.999Z,69.60
2018-07-02T21:31:22.925Z,69.50
2018-07-02T21:33:50.703Z,69.80
2018-07-02T21:36:18.513Z,69.80
2018-07-02T21:38:46.334Z,70.10
2018-07-02T21:41:14.238Z,69.90
2018-07-02T21:43:42.085Z,70.40
2018-07-02T21:48:38.031Z,69.00
2018-07-02T21:53:33.921Z,70.10
2018-07-02T21:56:01.646Z,69.60
2018-07-02T21:58:29.471Z,71.20
2018-07-02T22:00:57.230Z,71.70
2018-07-02T22:05:52.762Z,71.80
2018-07-02T22:10:48.246Z,75.10
2018-07-02T22:13:16.031Z,74.80
2018-07-02T22:15:46.215Z,75.30
2018-07-02T22:18:14.030Z,75.70
2018-07-02T22:20:41.840Z,75.30
2018-07-02T22:23:09.656Z,75.30
2018-07-02T22:28:05.318Z,72.20
2018-07-02T22:30:33.061Z,72.60
2018-07-02T22:33:00.880Z,72.70
2018-07-02T22:35:28.634Z,72.20
2018-07-02T22:37:56.448Z,72.40
2018-07-02T22:40:24.485Z,72.70
2018-07-02T22:42:52.445Z,72.70
2018-07-02T22:45:20.304Z,73.20
2018-07-02T22:47:48.016Z,73.90
2018-07-02T22:55:11.255Z,73.70
2018-07-02T22:57:39.119Z,73.40
2018-07-02T23:00:07.839Z,73.30
2018-07-02T23:05:03.343Z,74.10
2018-07-02T23:07:31.834Z,73.20
2018-07-02T23:09:59.907Z,72.50
2018-07-02T23:12:28.101Z,72.60
2018-07-02T23:14:55.974Z,73.70
2018-07-02T23:17:23.781Z,73.40
2018-07-02T23:19:51.627Z,72.90
2018-07-02T23:22:19.369Z,73.80
2018-07-02T23:24:47.154Z,73.00
2018-07-02T23:27:15.043Z,73.40
2018-07-02T23:29:42.815Z,73.40
2018-07-02T23:32:10.596Z,75.40
2018-07-02T23:34:38.363Z,75.90
2018-07-02T23:37:06.207Z,75.90
2018-07-02T23:39:33.988Z,76.70
2018-07-02T23:42:01.809Z,75.60
2018-07-02T23:44:29.605Z,74.40
2018-07-02T23:46:57.370Z,75.10
2018-07-02T23:49:25.104Z,75.60
2018-07-02T23:54:20.870Z,76.20
2018-07-02T23:56:48.730Z,76.10
2018-07-02T23:59:16.466Z,76.60
